sensor_id;sensor_type;location;lat;lon;timestamp;P1;durP1;ratioP1;P2;durP2;ratioP2
59314;SDS011;46521;50.160;20.802;2023-05-21T00:09:35;21.18;;;18.53;;
59314;SDS011;46521;50.160;20.802;2023-05-21T00:19:40;23.15;;;17.15;;
59314;SDS011;46521;50.160;20.802;2023-05-21T00:29:41;21.20;;;17.90;;
59314;SDS011;46521;50.160;20.802;2023-05-21T00:39:43;21.67;;;18.13;;
59314;SDS011;46521;50.160;20.802;2023-05-21T00:49:45;21.20;;;17.27;;
59314;SDS011;46521;50.160;20.802;2023-05-21T00:59:49;21.13;;;17.20;;
59314;SDS011;46521;50.160;20.802;2023-05-21T01:09:52;23.53;;;17.23;;
59314;SDS011;46521;50.160;20.802;2023-05-21T01:19:54;20.68;;;16.13;;
59314;SDS011;46521;50.160;20.802;2023-05-21T01:29:58;20.98;;;15.90;;
59314;SDS011;46521;50.160;20.802;2023-05-21T01:40:01;21.75;;;16.33;;
59314;SDS011;46521;50.160;20.802;2023-05-21T01:50:10;20.25;;;15.03;;
59314;SDS011;46521;50.160;20.802;2023-05-21T02:00:12;19.30;;;14.33;;
59314;SDS011;46521;50.160;20.802;2023-05-21T02:10:14;18.88;;;14.65;;
59314;SDS011;46521;50.160;20.802;2023-05-21T02:20:16;17.80;;;13.65;;
59314;SDS011;46521;50.160;20.802;2023-05-21T02:30:18;17.78;;;13.18;;
59314;SDS011;46521;50.160;20.802;2023-05-21T02:40:19;14.90;;;12.58;;
59314;SDS011;46521;50.160;20.802;2023-05-21T02:50:21;14.95;;;11.70;;
59314;SDS011;46521;50.160;20.802;2023-05-21T03:00:23;14.93;;;11.50;;
59314;SDS011;46521;50.160;20.802;2023-05-21T03:10:24;16.43;;;12.03;;
59314;SDS011;46521;50.160;20.802;2023-05-21T03:20:26;14.68;;;10.95;;
59314;SDS011;46521;50.160;20.802;2023-05-21T03:30:28;16.80;;;10.90;;
59314;SDS011;46521;50.160;20.802;2023-05-21T03:40:30;15.50;;;9.63;;
59314;SDS011;46521;50.160;20.802;2023-05-21T03:50:31;14.75;;;9.33;;
59314;SDS011;46521;50.160;20.802;2023-05-21T04:00:33;13.58;;;9.50;;
59314;SDS011;46521;50.160;20.802;2023-05-21T04:10:37;11.88;;;8.08;;
59314;SDS011;46521;50.160;20.802;2023-05-21T04:20:38;10.45;;;7.45;;
59314;SDS011;46521;50.160;20.802;2023-05-21T04:30:42;11.17;;;7.53;;
59314;SDS011;46521;50.160;20.802;2023-05-21T04:40:49;11.70;;;6.90;;
59314;SDS011;46521;50.160;20.802;2023-05-21T04:50:51;11.08;;;6.35;;
59314;SDS011;46521;50.160;20.802;2023-05-21T05:00:53;10.27;;;6.03;;
59314;SDS011;46521;50.160;20.802;2023-05-21T05:10:55;11.80;;;5.63;;
59314;SDS011;46521;50.160;20.802;2023-05-21T05:20:57;9.95;;;5.30;;
59314;SDS011;46521;50.160;20.802;2023-05-21T05:30:58;10.93;;;5.47;;
59314;SDS011;46521;50.160;20.802;2023-05-21T05:41:00;10.13;;;6.00;;
59314;SDS011;46521;50.160;20.802;2023-05-21T05:51:01;11.70;;;5.58;;
59314;SDS011;46521;50.160;20.802;2023-05-21T06:01:03;9.05;;;5.50;;
59314;SDS011;46521;50.160;20.802;2023-05-21T06:11:04;9.10;;;5.80;;
59314;SDS011;46521;50.160;20.802;2023-05-21T06:21:06;10.73;;;6.10;;
59314;SDS011;46521;50.160;20.802;2023-05-21T06:31:07;9.45;;;5.73;;
59314;SDS011;46521;50.160;20.802;2023-05-21T06:41:09;9.53;;;5.25;;
59314;SDS011;46521;50.160;20.802;2023-05-21T06:51:11;8.80;;;5.63;;
59314;SDS011;46521;50.160;20.802;2023-05-21T07:01:12;9.60;;;5.83;;
59314;SDS011;46521;50.160;20.802;2023-05-21T07:11:14;10.27;;;5.20;;
59314;SDS011;46521;50.160;20.802;2023-05-21T07:21:15;9.15;;;5.03;;
59314;SDS011;46521;50.160;20.802;2023-05-21T07:31:17;9.05;;;5.05;;
59314;SDS011;46521;50.160;20.802;2023-05-21T07:41:18;8.55;;;4.58;;
59314;SDS011;46521;50.160;20.802;2023-05-21T07:51:21;8.43;;;4.50;;
59314;SDS011;46521;50.160;20.802;2023-05-21T08:01:23;7.80;;;4.07;;
59314;SDS011;46521;50.160;20.802;2023-05-21T08:11:24;8.43;;;4.08;;
59314;SDS011;46521;50.160;20.802;2023-05-21T08:21:26;7.85;;;4.13;;
59314;SDS011;46521;50.160;20.802;2023-05-21T08:31:28;7.90;;;4.77;;
59314;SDS011;46521;50.160;20.802;2023-05-21T08:41:29;7.50;;;3.80;;
59314;SDS011;46521;50.160;20.802;2023-05-21T08:51:35;8.33;;;3.90;;
59314;SDS011;46521;50.160;20.802;2023-05-21T09:01:38;8.10;;;3.90;;
59314;SDS011;46521;50.160;20.802;2023-05-21T09:11:42;7.25;;;3.98;;
59314;SDS011;46521;50.160;20.802;2023-05-21T09:21:46;9.13;;;3.80;;
59314;SDS011;46521;50.160;20.802;2023-05-21T09:31:48;7.73;;;3.75;;
59314;SDS011;46521;50.160;20.802;2023-05-21T09:41:50;7.93;;;3.60;;
59314;SDS011;46521;50.160;20.802;2023-05-21T09:51:54;9.83;;;3.40;;
59314;SDS011;46521;50.160;20.802;2023-05-21T10:02:01;6.38;;;3.23;;
59314;SDS011;46521;50.160;20.802;2023-05-21T10:12:03;6.60;;;3.10;;
59314;SDS011;46521;50.160;20.802;2023-05-21T10:22:06;7.27;;;3.20;;
59314;SDS011;46521;50.160;20.802;2023-05-21T10:32:11;7.55;;;3.75;;
59314;SDS011;46521;50.160;20.802;2023-05-21T11:02:47;6.20;;;3.05;;
59314;SDS011;46521;50.160;20.802;2023-05-21T11:13:05;5.08;;;2.53;;
59314;SDS011;46521;50.160;20.802;2023-05-21T11:33:18;5.33;;;2.40;;
59314;SDS011;46521;50.160;20.802;2023-05-21T11:43:19;5.30;;;2.43;;
59314;SDS011;46521;50.160;20.802;2023-05-21T11:53:21;7.60;;;3.50;;
59314;SDS011;46521;50.160;20.802;2023-05-21T12:13:49;5.48;;;2.60;;
59314;SDS011;46521;50.160;20.802;2023-05-21T12:23:51;7.40;;;2.80;;
59314;SDS011;46521;50.160;20.802;2023-05-21T12:33:52;8.60;;;3.00;;
59314;SDS011;46521;50.160;20.802;2023-05-21T12:43:54;5.80;;;2.70;;
59314;SDS011;46521;50.160;20.802;2023-05-21T12:53:55;7.18;;;2.80;;
59314;SDS011;46521;50.160;20.802;2023-05-21T13:03:57;6.18;;;2.70;;
59314;SDS011;46521;50.160;20.802;2023-05-21T13:13:58;5.93;;;2.70;;
59314;SDS011;46521;50.160;20.802;2023-05-21T13:24:00;6.23;;;3.00;;
59314;SDS011;46521;50.160;20.802;2023-05-21T13:34:01;6.45;;;2.80;;
59314;SDS011;46521;50.160;20.802;2023-05-21T13:44:03;6.30;;;2.80;;
59314;SDS011;46521;50.160;20.802;2023-05-21T13:54:05;5.87;;;3.17;;
59314;SDS011;46521;50.160;20.802;2023-05-21T14:04:06;6.13;;;3.30;;
59314;SDS011;46521;50.160;20.802;2023-05-21T14:14:08;6.53;;;2.85;;
59314;SDS011;46521;50.160;20.802;2023-05-21T14:24:09;5.75;;;2.75;;
59314;SDS011;46521;50.160;20.802;2023-05-21T14:34:11;6.38;;;2.65;;
59314;SDS011;46521;50.160;20.802;2023-05-21T14:44:12;6.63;;;2.73;;
59314;SDS011;46521;50.160;20.802;2023-05-21T14:54:14;5.77;;;2.70;;
59314;SDS011;46521;50.160;20.802;2023-05-21T15:04:15;7.10;;;3.35;;
59314;SDS011;46521;50.160;20.802;2023-05-21T15:14:17;6.43;;;2.40;;
59314;SDS011;46521;50.160;20.802;2023-05-21T15:24:19;4.77;;;2.30;;
59314;SDS011;46521;50.160;20.802;2023-05-21T15:34:21;6.40;;;2.80;;
59314;SDS011;46521;50.160;20.802;2023-05-21T15:44:23;5.88;;;2.38;;
59314;SDS011;46521;50.160;20.802;2023-05-21T15:54:25;6.40;;;2.70;;
59314;SDS011;46521;50.160;20.802;2023-05-21T16:04:27;6.20;;;2.85;;
59314;SDS011;46521;50.160;20.802;2023-05-21T16:14:29;5.80;;;2.75;;
59314;SDS011;46521;50.160;20.802;2023-05-21T16:24:30;4.57;;;2.20;;
59314;SDS011;46521;50.160;20.802;2023-05-21T16:34:32;5.50;;;2.40;;
59314;SDS011;46521;50.160;20.802;2023-05-21T16:44:34;7.73;;;2.70;;
59314;SDS011;46521;50.160;20.802;2023-05-21T17:04:38;6.88;;;2.85;;
59314;SDS011;46521;50.160;20.802;2023-05-21T17:14:40;6.30;;;2.90;;
59314;SDS011;46521;50.160;20.802;2023-05-21T17:25:02;7.63;;;2.77;;
59314;SDS011;46521;50.160;20.802;2023-05-21T17:35:04;6.00;;;2.65;;
59314;SDS011;46521;50.160;20.802;2023-05-21T17:45:05;6.13;;;2.53;;
59314;SDS011;46521;50.160;20.802;2023-05-21T17:55:10;7.55;;;3.08;;
59314;SDS011;46521;50.160;20.802;2023-05-21T18:15:13;6.57;;;2.93;;
59314;SDS011;46521;50.160;20.802;2023-05-21T18:25:15;7.43;;;3.28;;
59314;SDS011;46521;50.160;20.802;2023-05-21T18:35:16;7.05;;;3.18;;
59314;SDS011;46521;50.160;20.802;2023-05-21T18:55:46;6.23;;;3.07;;
59314;SDS011;46521;50.160;20.802;2023-05-21T19:05:47;6.40;;;3.10;;
59314;SDS011;46521;50.160;20.802;2023-05-21T19:15:49;7.20;;;3.15;;
59314;SDS011;46521;50.160;20.802;2023-05-21T19:25:51;7.45;;;3.35;;
59314;SDS011;46521;50.160;20.802;2023-05-21T19:35:53;7.17;;;3.13;;
59314;SDS011;46521;50.160;20.802;2023-05-21T19:45:54;8.15;;;3.48;;
59314;SDS011;46521;50.160;20.802;2023-05-21T19:55:56;6.33;;;2.97;;
59314;SDS011;46521;50.160;20.802;2023-05-21T20:05:58;8.05;;;3.18;;
59314;SDS011;46521;50.160;20.802;2023-05-21T20:15:59;7.55;;;3.60;;
59314;SDS011;46521;50.160;20.802;2023-05-21T20:26:03;8.43;;;3.33;;
59314;SDS011;46521;50.160;20.802;2023-05-21T20:36:13;7.43;;;3.83;;
59314;SDS011;46521;50.160;20.802;2023-05-21T20:46:15;6.73;;;3.23;;
59314;SDS011;46521;50.160;20.802;2023-05-21T20:56:18;8.03;;;3.65;;
59314;SDS011;46521;50.160;20.802;2023-05-21T21:06:19;8.23;;;3.80;;
59314;SDS011;46521;50.160;20.802;2023-05-21T21:16:21;8.57;;;4.00;;
59314;SDS011;46521;50.160;20.802;2023-05-21T21:26:22;9.53;;;3.83;;
59314;SDS011;46521;50.160;20.802;2023-05-21T21:36:24;7.77;;;3.70;;
59314;SDS011;46521;50.160;20.802;2023-05-21T21:46:28;7.88;;;3.40;;
59314;SDS011;46521;50.160;20.802;2023-05-21T21:56:30;8.40;;;3.90;;
59314;SDS011;46521;50.160;20.802;2023-05-21T22:06:31;7.30;;;3.73;;
59314;SDS011;46521;50.160;20.802;2023-05-21T22:16:33;7.55;;;4.10;;
59314;SDS011;46521;50.160;20.802;2023-05-21T22:26:34;8.30;;;4.40;;
59314;SDS011;46521;50.160;20.802;2023-05-21T22:36:36;8.33;;;4.05;;
59314;SDS011;46521;50.160;20.802;2023-05-21T22:46:39;8.35;;;4.55;;
59314;SDS011;46521;50.160;20.802;2023-05-21T22:56:41;8.83;;;4.63;;
59314;SDS011;46521;50.160;20.802;2023-05-21T23:06:44;8.70;;;4.25;;
59314;SDS011;46521;50.160;20.802;2023-05-21T23:16:45;8.55;;;4.33;;
59314;SDS011;46521;50.160;20.802;2023-05-21T23:26:48;7.93;;;4.00;;
59314;SDS011;46521;50.160;20.802;2023-05-21T23:36:50;8.17;;;4.37;;
59314;SDS011;46521;50.160;20.802;2023-05-21T23:46:51;8.03;;;4.23;;
